sensor_id;sensor_type;location;lat;lon;timestamp;pressure;altitude;pressure_sealevel;temperature;humidity
63582;BME280;49727;51.078;17.066;2023-08-08T00:09:17;99764.66;;;13.79;66.77
63582;BME280;49727;51.078;17.066;2023-08-08T00:24:17;99766.88;;;13.76;66.49
63582;BME280;49727;51.078;17.066;2023-08-08T00:39:18;99775.88;;;13.61;66.13
63582;BME280;49727;51.078;17.066;2023-08-08T00:54:19;99774.47;;;13.59;66.37
63582;BME280;49727;51.078;17.066;2023-08-08T01:09:30;99778.72;;;13.46;65.72
63582;BME280;49727;51.078;17.066;2023-08-08T01:24:33;99782.81;;;13.07;66.20
63582;BME280;49727;51.078;17.066;2023-08-08T01:39:37;99776.88;;;12.77;66.81
63582;BME280;49727;51.078;17.066;2023-08-08T01:54:38;99774.22;;;12.55;67.12
63582;BME280;49727;51.078;17.066;2023-08-08T02:09:39;99770.94;;;12.31;67.25
63582;BME280;49727;51.078;17.066;2023-08-08T02:24:39;99783.06;;;12.12;67.92
63582;BME280;49727;51.078;17.066;2023-08-08T02:39:39;99776.78;;;11.98;68.33
63582;BME280;49727;51.078;17.066;2023-08-08T02:54:40;99784.88;;;11.90;68.36
63582;BME280;49727;51.078;17.066;2023-08-08T03:09:40;99797.53;;;11.81;68.32
63582;BME280;49727;51.078;17.066;2023-08-08T03:24:40;99814.06;;;11.77;68.19
63582;BME280;49727;51.078;17.066;2023-08-08T03:39:41;99820.38;;;11.69;68.01
63582;BME280;49727;51.078;17.066;2023-08-08T03:54:42;99837.09;;;11.63;68.03
63582;BME280;49727;51.078;17.066;2023-08-08T04:09:43;99847.06;;;11.69;68.09
63582;BME280;49727;51.078;17.066;2023-08-08T04:24:43;99846.56;;;11.95;68.19
63582;BME280;49727;51.078;17.066;2023-08-08T04:39:43;99882.66;;;12.71;67.69
63582;BME280;49727;51.078;17.066;2023-08-08T04:54:44;99887.06;;;13.29;66.35
63582;BME280;49727;51.078;17.066;2023-08-08T05:09:44;99896.38;;;13.68;65.21
63582;BME280;49727;51.078;17.066;2023-08-08T05:24:45;99911.63;;;14.16;63.83
63582;BME280;49727;51.078;17.066;2023-08-08T05:39:45;99912.16;;;14.60;62.35
63582;BME280;49727;51.078;17.066;2023-08-08T05:54:45;99915.72;;;14.67;61.57
63582;BME280;49727;51.078;17.066;2023-08-08T06:09:46;99914.06;;;15.13;61.23
63582;BME280;49727;51.078;17.066;2023-08-08T06:24:46;99909.25;;;15.68;59.86
63582;BME280;49727;51.078;17.066;2023-08-08T06:39:46;99915.00;;;15.79;57.71
63582;BME280;49727;51.078;17.066;2023-08-08T06:54:47;99905.53;;;16.35;56.39
63582;BME280;49727;51.078;17.066;2023-08-08T07:09:48;99900.22;;;17.36;52.48
63582;BME280;49727;51.078;17.066;2023-08-08T07:24:48;99892.91;;;18.17;49.65
63582;BME280;49727;51.078;17.066;2023-08-08T07:39:52;99903.69;;;17.62;47.02
63582;BME280;49727;51.078;17.066;2023-08-08T07:54:55;99910.41;;;17.34;47.21
63582;BME280;49727;51.078;17.066;2023-08-08T08:09:56;99890.97;;;18.67;45.13
63582;BME280;49727;51.078;17.066;2023-08-08T08:24:56;99886.91;;;19.94;41.13
63582;BME280;49727;51.078;17.066;2023-08-08T08:39:56;99880.75;;;20.28;39.35
63582;BME280;49727;51.078;17.066;2023-08-08T08:54:57;99882.94;;;19.50;39.30
63582;BME280;49727;51.078;17.066;2023-08-08T09:09:57;99881.81;;;20.27;38.61
63582;BME280;49727;51.078;17.066;2023-08-08T09:24:57;99882.63;;;21.58;35.95
63582;BME280;49727;51.078;17.066;2023-08-08T09:39:59;99890.63;;;23.02;34.36
63582;BME280;49727;51.078;17.066;2023-08-08T09:55:00;99878.09;;;23.33;32.44
63582;BME280;49727;51.078;17.066;2023-08-08T10:10:00;99879.66;;;20.70;35.88
63582;BME280;49727;51.078;17.066;2023-08-08T10:25:03;99885.84;;;19.72;37.89
63582;BME280;49727;51.078;17.066;2023-08-08T10:40:05;99885.84;;;20.24;37.88
63582;BME280;49727;51.078;17.066;2023-08-08T10:55:24;99877.72;;;22.27;35.95
63582;BME280;49727;51.078;17.066;2023-08-08T11:10:25;99865.16;;;21.93;35.97
63582;BME280;49727;51.078;17.066;2023-08-08T11:25:31;99871.41;;;21.33;36.95
63582;BME280;49727;51.078;17.066;2023-08-08T11:40:31;99866.47;;;22.13;36.45
63582;BME280;49727;51.078;17.066;2023-08-08T11:55:32;99859.22;;;21.96;36.70
63582;BME280;49727;51.078;17.066;2023-08-08T12:10:32;99857.53;;;23.05;34.94
63582;BME280;49727;51.078;17.066;2023-08-08T12:25:33;99853.16;;;22.39;36.84
63582;BME280;49727;51.078;17.066;2023-08-08T12:40:33;99855.25;;;21.82;37.74
63582;BME280;49727;51.078;17.066;2023-08-08T12:55:34;99847.81;;;21.94;37.70
63582;BME280;49727;51.078;17.066;2023-08-08T13:10:35;99838.03;;;22.21;36.77
63582;BME280;49727;51.078;17.066;2023-08-08T13:25:35;99833.84;;;22.08;36.79
63582;BME280;49727;51.078;17.066;2023-08-08T13:40:36;99842.53;;;21.04;37.98
63582;BME280;49727;51.078;17.066;2023-08-08T13:55:36;99826.63;;;21.91;37.98
63582;BME280;49727;51.078;17.066;2023-08-08T14:10:40;99823.69;;;23.23;35.99
63582;BME280;49727;51.078;17.066;2023-08-08T14:25:41;99824.31;;;22.92;34.99
63582;BME280;49727;51.078;17.066;2023-08-08T14:40:41;99826.44;;;22.25;35.93
63582;BME280;49727;51.078;17.066;2023-08-08T14:55:42;99806.97;;;22.34;37.22
63582;BME280;49727;51.078;17.066;2023-08-08T15:10:42;99815.53;;;21.93;36.69
63582;BME280;49727;51.078;17.066;2023-08-08T15:25:43;99822.28;;;21.07;38.17
63582;BME280;49727;51.078;17.066;2023-08-08T15:40:43;99829.72;;;20.49;39.53
63582;BME280;49727;51.078;17.066;2023-08-08T15:55:44;99824.81;;;20.45;39.98
63582;BME280;49727;51.078;17.066;2023-08-08T16:10:44;99800.56;;;20.05;40.95
63582;BME280;49727;51.078;17.066;2023-08-08T16:25:45;99801.16;;;20.24;41.04
63582;BME280;49727;51.078;17.066;2023-08-08T16:40:45;99802.81;;;19.67;42.13
63582;BME280;49727;51.078;17.066;2023-08-08T16:55:46;99796.91;;;19.30;43.47
63582;BME280;49727;51.078;17.066;2023-08-08T17:10:46;99810.06;;;19.02;44.81
63582;BME280;49727;51.078;17.066;2023-08-08T17:25:47;99795.66;;;18.42;46.58
63582;BME280;49727;51.078;17.066;2023-08-08T17:40:47;99805.28;;;17.96;48.04
63582;BME280;49727;51.078;17.066;2023-08-08T17:55:47;99821.25;;;17.42;50.56
63582;BME280;49727;51.078;17.066;2023-08-08T18:10:48;99878.50;;;17.12;52.62
63582;BME280;49727;51.078;17.066;2023-08-08T18:25:49;99836.41;;;16.99;53.77
63582;BME280;49727;51.078;17.066;2023-08-08T18:40:49;99860.56;;;16.74;52.47
63582;BME280;49727;51.078;17.066;2023-08-08T18:55:51;99892.84;;;16.74;52.35
63582;BME280;49727;51.078;17.066;2023-08-08T19:10:51;99940.09;;;16.18;54.49
63582;BME280;49727;51.078;17.066;2023-08-08T19:25:57;99890.16;;;15.04;58.74
63582;BME280;49727;51.078;17.066;2023-08-08T19:40:58;99899.03;;;14.92;61.36
63582;BME280;49727;51.078;17.066;2023-08-08T19:55:59;99892.81;;;14.91;62.45
63582;BME280;49727;51.078;17.066;2023-08-08T20:11:00;99892.81;;;14.98;62.94
63582;BME280;49727;51.078;17.066;2023-08-08T20:26:01;99897.81;;;15.01;63.96
63582;BME280;49727;51.078;17.066;2023-08-08T20:41:02;99895.72;;;14.89;64.21
63582;BME280;49727;51.078;17.066;2023-08-08T20:56:03;99892.00;;;14.97;65.04
63582;BME280;49727;51.078;17.066;2023-08-08T21:11:03;99891.81;;;15.12;64.89
63582;BME280;49727;51.078;17.066;2023-08-08T21:26:03;99897.78;;;14.87;65.03
63582;BME280;49727;51.078;17.066;2023-08-08T21:41:04;99890.97;;;14.71;65.45
63582;BME280;49727;51.078;17.066;2023-08-08T21:56:04;99889.06;;;14.52;66.03
63582;BME280;49727;51.078;17.066;2023-08-08T22:11:05;99894.41;;;14.52;66.07
63582;BME280;49727;51.078;17.066;2023-08-08T22:26:05;99903.03;;;14.47;65.62
63582;BME280;49727;51.078;17.066;2023-08-08T22:41:05;99895.00;;;14.47;65.78
63582;BME280;49727;51.078;17.066;2023-08-08T22:56:06;99895.03;;;14.54;65.27
63582;BME280;49727;51.078;17.066;2023-08-08T23:11:06;99895.41;;;14.44;64.90
63582;BME280;49727;51.078;17.066;2023-08-08T23:26:06;99895.78;;;14.28;64.49
63582;BME280;49727;51.078;17.066;2023-08-08T23:41:07;99897.69;;;14.34;64.32
63582;BME280;49727;51.078;17.066;2023-08-08T23:56:07;99905.91;;;14.39;64.43
